Latest Coastal Weather Observations for Point Stuart

IDD60701

Issued at 1:01 pm CST Saturday 16 December 2017 (issued every 10 minutes, with the page automatically refreshed every 10 minutes)

About coastal observations | Map of coastal stations | Coastal observations for NT | Marine services | Other Formats
Station Details ID: 014254 Name: POINT STUART Lat: -12.24 Lon: 131.88 Height: 1.0 m
Data from the previous 72 hours. | See also: Recent months at Point Stuart
Date/Time
CST
Temp
°C
Wind Pressure Rain since
9am
mm
Weather Cloud Vis
km
Sea
Height
m
Swell
Dir  Spd
kts
Gust
kts
hPa Trend Height
m
Period
s
Dir
16/01:00pm 33.0 NNW 5 8 1007.9 - 0.0 - - - - - - -
16/12:30pm 32.4 N 5 9 1008.3 - 0.0 - - - - - - -
16/12:00pm 32.1 NW 4 7 1008.8 - 0.0 - - - - - - -
16/11:30am 32.2 NNW 3 5 1009.2 - 0.0 - - - - - - -
16/11:00am 31.9 N 1 5 1009.6 - 0.0 - - - - - - -
16/10:30am 30.9 SSE 1 3 1009.9 - 0.0 - - - - - - -
16/10:00am 30.2 CALM 0 3 1010.2 - 0.0 - - - - - - -
16/09:30am 30.2 ESE 3 5 1010.5 - 0.0 - - - - - - -
16/09:00am 28.8 S 4 6 1010.5 - 6.0 - - - - - - -
16/08:30am 28.2 S 6 6 1010.5 - 6.0 - - - - - - -
16/08:00am 27.7 S 5 7 1010.3 - 6.0 - - - - - - -
16/07:30am 27.0 S 6 8 1010.1 - 6.0 - - - - - - -
16/07:00am 26.2 S 2 3 1010.0 - 5.8 - - - - - - -
16/06:30am 25.7 S 5 6 1009.6 - 5.8 - - - - - - -
16/06:00am 25.5 CALM 0 0 1008.8 - 5.8 - - - - - - -
16/05:30am 25.7 S 3 4 1008.2 - 5.8 - - - - - - -
16/05:00am 25.8 E 1 6 1007.6 - 5.8 - - - - - - -
16/04:30am 25.9 ENE 3 5 1007.5 - 5.8 - - - - - - -
16/04:00am 26.2 CALM 0 0 1007.3 - 5.8 - - - - - - -
16/03:30am 26.4 SSE 6 7 1007.3 - 5.8 - - - - - - -
16/03:00am 27.1 SSE 7 10 1007.0 - 0.8 - - - - - - -
16/02:30am 27.5 S 7 9 1007.0 - 0.0 - - - - - - -
16/02:00am 28.2 W 4 6 1007.1 - 0.0 - - - - - - -
16/01:30am 28.4 NW 3 5 1007.4 - 0.0 - - - - - - -
16/01:00am 28.7 NNW 4 7 1007.4 - 0.0 - - - - - - -
16/12:30am 29.1 NNW 3 6 1007.6 - 0.0 - - - - - - -
16/12:00am 29.3 N 4 7 1007.3 - 0.0 - - - - - - -
 
Date/Time
CST
Temp
°C
Wind Pressure Rain since
9am
mm
Weather Cloud Vis
km
Sea
Height
m
Swell
Dir  Spd
kts
Gust
kts
hPa Trend Height
m
Period
s
Dir
15/11:30pm 29.3 NNW 5 7 1007.5 - 0.0 - - - - - - -
15/11:00pm 29.7 NNW 5 9 1007.5 - 0.0 - - - - - - -
15/10:30pm 29.7 NNW 5 10 1007.4 - 0.0 - - - - - - -
15/10:00pm 29.6 NNW 5 8 1007.3 - 0.0 - - - - - - -
15/09:30pm 29.7 N 5 8 1007.0 - 0.0 - - - - - - -
15/09:00pm 29.5 N 5 8 1006.6 - 0.0 - - - - - - -
15/08:30pm 29.5 N 5 8 1006.4 - 0.0 - - - - - - -
15/08:00pm 29.6 N 4 7 1006.1 - 0.0 - - - - - - -
15/07:30pm 29.6 NNW 3 6 1005.9 - 0.0 - - - - - - -
15/07:00pm 29.9 NNW 5 8 1005.6 - 0.0 - - - - - - -
15/06:30pm 30.6 NNW 6 9 1005.3 - 0.0 - - - - - - -
15/06:00pm 31.9 NNW 5 8 1004.9 - 0.0 - - - - - - -
15/05:30pm 33.1 NNW 6 10 1004.8 - 0.0 - - - - - - -
15/05:00pm 32.9 NW 7 9 1004.9 - 0.0 - - - - - - -
15/04:30pm 32.7 WNW 7 10 1004.7 - 0.0 - - - - - - -
15/04:00pm 32.0 WNW 7 9 1004.7 - 0.0 - - - - - - -
15/03:30pm 32.3 NW 7 10 1004.8 - 0.0 - - - - - - -
15/03:00pm 32.1 WNW 6 8 1005.0 - 0.0 - - - - - - -
15/02:30pm 32.3 NW 8 10 1005.2 - 0.0 - - - - - - -
15/02:00pm 33.1 NW 7 10 1005.4 - 0.0 - - - - - - -
15/01:30pm 33.9 NW 8 11 1005.8 - 0.0 - - - - - - -
15/01:00pm 33.6 NW 8 12 1006.2 - 0.0 - - - - - - -
15/12:30pm 33.2 WSW 3 7 1006.7 - 0.0 - - - - - - -
15/12:00pm 33.0 SW 7 10 1007.1 - 0.0 - - - - - - -
15/11:30am 32.3 SW 6 11 1007.7 - 0.0 - - - - - - -
15/11:00am 32.1 WSW 10 11 1008.1 - 0.0 - - - - - - -
15/10:30am 32.6 S 6 10 1008.3 - 0.0 - - - - - - -
15/10:00am 31.4 SW 8 10 1008.7 - 0.0 - - - - - - -
15/09:30am 31.1 SW 8 11 1008.9 - 0.0 - - - - - - -
15/09:00am 30.3 SSW 8 10 1009.2 - 0.0 - - - - - - -
15/08:30am 29.3 S 8 11 1009.1 - 0.0 - - - - - - -
15/08:00am 28.8 S 9 11 1008.7 - 0.0 - - - - - - -
15/07:30am 28.6 S 5 7 1008.4 - 0.0 - - - - - - -
15/07:00am 28.3 SSW 4 6 1008.1 - 0.0 - - - - - - -
15/06:30am 28.3 WNW 6 8 1007.9 - 0.0 - - - - - - -
15/06:00am 28.0 NW 6 8 1007.6 - 0.0 - - - - - - -
15/05:30am 27.9 NW 1 4 1007.4 - 0.0 - - - - - - -
15/05:00am 27.9 NW 5 7 1006.9 - 0.0 - - - - - - -
15/04:30am 28.1 NNW 5 6 1006.3 - 0.0 - - - - - - -
15/04:00am 28.4 NNW 4 7 1006.1 - 0.0 - - - - - - -
15/03:30am 28.2 NNW 3 6 1006.1 - 0.0 - - - - - - -
15/03:00am 27.9 NNW 4 6 1006.2 - 0.0 - - - - - - -
15/02:30am 27.9 NNW 4 7 1006.6 - 0.0 - - - - - - -
15/02:00am 27.7 NNW 4 6 1007.0 - 0.0 - - - - - - -
15/01:30am 27.6 NW 4 6 1007.2 - 0.0 - - - - - - -
15/01:00am 28.1 N 2 4 1007.5 - 0.0 - - - - - - -
15/12:30am 28.3 NNW 5 8 1007.6 - 0.0 - - - - - - -
15/12:00am 28.3 NNW 6 8 1007.7 - 0.0 - - - - - - -
 
Date/Time
CST
Temp
°C
Wind Pressure Rain since
9am
mm
Weather Cloud Vis
km
Sea
Height
m
Swell
Dir  Spd
kts
Gust
kts
hPa Trend Height
m
Period
s
Dir
14/11:30pm 28.7 NNW 6 8 1007.6 - 0.0 - - - - - - -
14/11:00pm 28.9 NNW 5 7 1007.3 - 0.0 - - - - - - -
14/10:30pm 28.9 NNW 5 8 1007.4 - 0.0 - - - - - - -
14/10:00pm 28.9 NNW 4 6 1007.2 - 0.0 - - - - - - -
14/09:30pm 28.8 NW 7 8 1007.0 - 0.0 - - - - - - -
14/09:00pm 28.7 NNW 5 7 1006.5 - 0.0 - - - - - - -
14/08:30pm 28.9 NW 7 8 1006.0 - 0.0 - - - - - - -
14/08:00pm 28.7 NNW 6 8 1005.8 - 0.0 - - - - - - -
14/07:30pm 28.4 NW 4 6 1005.8 - 0.0 - - - - - - -
14/07:00pm 29.5 WNW 4 5 1005.4 - 0.0 - - - - - - -
14/06:30pm 30.9 NW 5 6 1005.1 - 0.0 - - - - - - -
14/06:00pm 31.6 NW 6 7 1004.8 - 0.0 - - - - - - -
14/05:30pm 32.3 NW 6 8 1004.5 - 0.0 - - - - - - -
14/05:00pm 32.8 NNW 5 6 1004.7 - 0.0 - - - - - - -
14/04:30pm 32.4 N 5 8 1004.8 - 0.0 - - - - - - -
14/04:00pm 33.1 NW 5 9 1005.0 - 0.0 - - - - - - -
14/03:30pm 32.7 NNW 5 9 1005.3 - 0.0 - - - - - - -
14/03:00pm 32.4 NNW 5 9 1005.4 - 0.0 - - - - - - -
14/02:30pm 31.6 NW 5 8 1005.8 - 0.0 - - - - - - -
14/02:00pm 32.0 NNW 4 8 1006.2 - 0.0 - - - - - - -
14/01:30pm 31.8 NW 5 7 1006.6 - 0.0 - - - - - - -
14/01:00pm 31.7 NNW 6 9 1007.0 - 0.0 - - - - - - -
14/12:30pm 31.8 NW 6 9 1007.4 - 0.0 - - - - - - -
14/12:00pm 31.5 WSW 2 5 1007.9 - 0.0 - - - - - - -
14/11:30am 30.5 W 1 4 1008.5 - 0.0 - - - - - - -
14/11:00am 29.9 SSE 1 3 1008.8 - 0.0 - - - - - - -
14/10:30am 29.5 S 3 5 1009.1 - 0.0 - - - - - - -
14/10:00am 28.7 S 4 5 1009.2 - 0.0 - - - - - - -
14/09:30am 27.3 SSW 5 7 1009.5 - 0.0 - - - - - - -
14/09:00am 26.6 S 6 7 1009.3 - 30.4 - - - - - - -
14/08:30am 25.1 S 5 6 1009.3 - 30.4 - - - - - - -
14/08:00am 24.2 S 5 6 1009.2 - 30.4 - - - - - - -
14/07:30am 24.0 SSE 5 6 1008.7 - 30.4 - - - - - - -
14/07:00am 23.5 SE 4 6 1008.4 - 30.4 - - - - - - -
14/06:30am 23.3 SSE 6 8 1007.7 - 30.4 - - - - - - -
14/06:00am 23.4 S 6 8 1007.2 - 30.4 - - - - - - -
14/05:30am 23.2 ESE 8 11 1007.0 - 30.4 - - - - - - -
14/05:00am 23.4 SE 9 13 1006.6 - 30.4 - - - - - - -
14/04:30am 24.5 S 5 8 1005.8 - 30.4 - - - - - - -
14/04:00am 25.0 NW 10 13 1005.2 - 30.4 - - - - - - -
14/03:30am 24.4 NNW 6 11 1005.9 - 30.2 - - - - - - -
14/03:00am 23.1 NNW 6 11 1007.0 - 30.2 - - - - - - -
14/02:30am 22.9 NNW 5 8 1008.4 - 29.4 - - - - - - -
14/02:00am 22.9 NNW 5 7 1009.2 - 28.6 - - - - - - -
14/01:30am 23.4 N 5 7 1009.8 - 27.0 - - - - - - -
14/01:00am 24.1 N 8 15 1009.7 - 25.6 - - - - - - -
14/12:30am 23.8 NNE 5 9 1009.4 - 25.0 - - - - - - -
14/12:00am 23.3 SE 17 23 1009.9 - 7.4 - - - - - - -
 
Date/Time
CST
Temp
°C
Wind Pressure Rain since
9am
mm
Weather Cloud Vis
km
Sea
Height
m
Swell
Dir  Spd
kts
Gust
kts
hPa Trend Height
m
Period
s
Dir
13/11:30pm 23.6 SSE 20 27 1009.9 - 0.0 - - - - - - -
13/11:19pm 27.1 S 17 23 1009.5 - 0.0 - - - - - - -
13/11:00pm 27.5 SSW 4 5 1008.9 - 0.0 - - - - - - -
13/10:30pm 27.6 SSW 5 7 1009.2 - 0.0 - - - - - - -
13/10:00pm 27.8 WSW 4 6 1008.4 - 0.0 - - - - - - -
13/09:30pm 29.6 WNW 9 13 1008.5 - 0.0 - - - - - - -
13/09:00pm 29.7 WNW 9 12 1008.5 - 0.0 - - - - - - -
13/08:30pm 28.7 W 5 8 1007.8 - 0.0 - - - - - - -
13/08:00pm 29.0 W 10 13 1007.4 - 0.0 - - - - - - -
13/07:30pm 29.5 WNW 12 18 1007.0 - 0.0 - - - - - - -
13/07:00pm 29.9 WNW 11 15 1006.5 - 0.0 - - - - - - -
13/06:30pm 30.2 WNW 8 12 1005.8 - 0.0 - - - - - - -
13/06:00pm 30.9 NNW 7 11 1005.7 - 0.0 - - - - - - -
13/05:30pm 31.2 NNW 10 14 1005.5 - 0.0 - - - - - - -
13/05:00pm 31.2 NW 8 11 1005.3 - 0.0 - - - - - - -
13/04:30pm 31.6 NNW 4 6 1005.2 - 0.0 - - - - - - -
13/04:00pm 32.4 NNW 6 9 1005.6 - 0.0 - - - - - - -
13/03:30pm 33.8 NNW 6 9 1005.6 - 0.0 - - - - - - -
13/03:00pm 32.8 NNW 6 10 1006.1 - 0.0 - - - - - - -
13/02:30pm 33.4 NNW 7 11 1006.5 - 0.0 - - - - - - -
13/02:00pm 34.1 NNW 6 12 1006.6 - 0.0 - - - - - - -
13/01:30pm 34.0 NNW 7 11 1006.9 - 0.0 - - - - - - -

Other Formats:

Comma delimited format used in spreadsheet applications
http://www.bom.gov.au/fwo/IDD60701/IDD60701.94127.axf

JavaScript Object Notation format (JSON) in row-major order
http://www.bom.gov.au/fwo/IDD60701/IDD60701.94127.json